Time;durP1;ratioP1;P1;durP2;ratioP2;P2;SDS_P1;SDS_P2;PMS_P1;PMS_P2;Temp;Humidity;BMP_temperature;BMP_pressure;BME280_temperature;BME280_humidity;BME280_pressure;Samples;Min_cycle;Max_cycle;Signal;HPM_P1;HPM_P2
2022/10/11 00:04:12;;;;;;;1.65;1.40;;;;;;;-146.19;100.00;65364.44;10385101;28;20498;-61
2022/10/11 00:09:31;;;;;;;2.08;1.48;;;;;;;-146.19;100.00;65364.44;10392277;28;20566;-62
2022/10/11 00:14:51;;;;;;;1.55;1.40;;;;;;;-146.19;100.00;65364.44;10388389;28;20401;-61
2022/10/11 00:20:11;;;;;;;1.60;1.50;;;;;;;-146.19;100.00;65364.44;10373454;28;20046;-62
2022/10/11 00:25:31;;;;;;;1.70;1.60;;;;;;;-146.19;100.00;65364.44;10399180;28;20401;-62
2022/10/11 00:30:51;;;;;;;1.70;1.25;;;;;;;-146.19;100.00;65364.44;10379091;28;20050;-62
2022/10/11 00:36:13;;;;;;;1.50;1.30;;;;;;;-146.19;100.00;65364.44;10392206;28;20038;-62
2022/10/11 00:41:33;;;;;;;1.50;1.33;;;;;;;-146.19;100.00;65364.44;10380338;28;20516;-61
2022/10/11 00:47:14;;;;;;;1.50;1.40;;;;;;;-146.19;100.00;65364.44;10390881;28;20108;-62
2022/10/11 00:52:38;;;;;;;1.60;1.50;;;;;;;-146.19;100.00;65364.44;10381193;28;20396;-61
2022/10/11 00:57:57;;;;;;;1.80;1.30;;;;;;;-146.19;100.00;65364.44;10373950;28;20062;-62
2022/10/11 01:03:19;;;;;;;1.45;1.20;;;;;;;-146.19;100.00;65364.44;10391301;28;20456;-60
2022/10/11 01:08:38;;;;;;;1.50;1.40;;;;;;;-146.19;100.00;65364.44;10388773;28;20041;-62
2022/10/11 01:14:38;;;;;;;2.05;1.30;;;;;;;-146.19;100.00;65364.44;10378005;28;20077;-62
2022/10/11 01:20:25;;;;;;;2.45;1.27;;;;;;;-146.19;100.00;65364.44;10370796;28;20456;-61
2022/10/11 01:25:59;;;;;;;1.52;1.40;;;;;;;-146.19;100.00;65364.44;10385564;28;20464;-62
2022/10/11 01:31:35;;;;;;;1.40;1.30;;;;;;;-146.19;100.00;65364.44;10390185;28;20072;-62
2022/10/11 01:37:04;;;;;;;1.30;1.17;;;;;;;-146.19;100.00;65364.44;10380893;28;20049;-61
2022/10/11 01:42:24;;;;;;;1.45;1.35;;;;;;;-146.19;100.00;65364.44;10374927;28;20116;-62
2022/10/11 01:47:47;;;;;;;1.92;1.40;;;;;;;-146.19;100.00;65364.44;10376656;28;20045;-62
2022/10/11 01:53:26;;;;;;;1.73;1.33;;;;;;;-146.19;100.00;65364.44;10396533;28;20108;-62
2022/10/11 01:59:12;;;;;;;1.33;1.20;;;;;;;-146.19;100.00;65364.44;10374406;28;20060;-62
2022/10/11 02:04:57;;;;;;;1.65;1.30;;;;;;;-146.19;100.00;65364.44;10380462;28;20045;-57
2022/10/11 02:10:27;;;;;;;1.40;1.25;;;;;;;-146.19;100.00;65364.44;10376121;28;20092;-60
2022/10/11 02:15:48;;;;;;;1.27;1.17;;;;;;;-146.19;100.00;65364.44;10373911;28;20112;-62
2022/10/11 02:21:10;;;;;;;1.23;1.10;;;;;;;-146.19;100.00;65364.44;10374137;28;20038;-62
2022/10/11 02:26:32;;;;;;;2.17;1.40;;;;;;;-146.19;100.00;65364.44;10377584;28;20050;-62
2022/10/11 02:31:52;;;;;;;1.27;1.17;;;;;;;-146.19;100.00;65364.44;10382360;28;20048;-62
2022/10/11 02:37:24;;;;;;;1.40;1.30;;;;;;;-146.19;100.00;65364.44;10377521;28;20054;-60
2022/10/11 02:42:47;;;;;;;1.42;1.33;;;;;;;-146.19;100.00;65364.44;10387230;28;20481;-62
2022/10/11 02:48:08;;;;;;;1.40;1.30;;;;;;;-146.19;100.00;65364.44;10381063;28;20092;-61
2022/10/11 02:53:27;;;;;;;1.48;1.15;;;;;;;-146.19;100.00;65364.44;10374697;28;20493;-62
2022/10/11 02:58:47;;;;;;;1.40;1.30;;;;;;;-146.19;100.00;65364.44;10381595;28;20497;-62
2022/10/11 03:04:07;;;;;;;1.23;1.13;;;;;;;-146.19;100.00;65364.44;10386481;28;20046;-61
2022/10/11 03:09:26;;;;;;;1.35;1.25;;;;;;;-146.19;100.00;65364.44;10399061;28;20042;-62
2022/10/11 03:14:46;;;;;;;1.25;1.10;;;;;;;-146.19;100.00;65364.44;10386212;28;20041;-61
2022/10/11 03:20:06;;;;;;;1.63;1.50;;;;;;;-146.19;100.00;65364.44;10372930;28;20358;-62
2022/10/11 03:25:25;;;;;;;1.30;1.20;;;;;;;-146.19;100.00;65364.44;10388390;28;20397;-62
2022/10/11 03:30:49;;;;;;;1.10;1.00;;;;;;;-146.19;100.00;65364.44;10372865;28;20053;-61
2022/10/11 03:36:09;;;;;;;2.13;1.30;;;;;;;-146.19;100.00;65364.44;10390372;28;20068;-62
2022/10/11 03:41:29;;;;;;;1.60;1.30;;;;;;;-146.19;100.00;65364.44;10385400;28;20069;-62
2022/10/11 03:46:48;;;;;;;1.45;1.35;;;;;;;-146.19;100.00;65364.44;10369212;28;20050;-62
2022/10/11 03:52:07;;;;;;;1.17;1.08;;;;;;;-146.19;100.00;65364.44;10386444;28;20056;-62
2022/10/11 03:57:27;;;;;;;1.55;1.20;;;;;;;-146.19;100.00;65364.44;10397073;28;20054;-62
2022/10/11 04:02:46;;;;;;;1.30;1.15;;;;;;;-146.19;100.00;65364.44;10398420;28;20048;-61
2022/10/11 04:08:05;;;;;;;1.20;1.10;;;;;;;-146.19;100.00;65364.44;10402662;28;20045;-61
2022/10/11 04:13:24;;;;;;;1.88;1.20;;;;;;;-146.19;100.00;65364.44;10398225;28;20468;-59
2022/10/11 04:18:44;;;;;;;1.20;1.10;;;;;;;-146.19;100.00;65364.44;10398629;28;20048;-60
2022/10/11 04:24:03;;;;;;;1.30;1.20;;;;;;;-146.19;100.00;65364.44;10385776;28;20107;-62
2022/10/11 04:29:23;;;;;;;1.30;1.20;;;;;;;-146.19;100.00;65364.44;10397828;28;20046;-61
2022/10/11 04:34:43;;;;;;;1.30;1.20;;;;;;;-146.19;100.00;65364.44;10408289;28;20069;-62
2022/10/11 04:40:04;;;;;;;1.13;1.02;;;;;;;-146.19;100.00;65364.44;10397915;28;20057;-62
2022/10/11 04:45:25;;;;;;;1.70;1.40;;;;;;;-146.19;100.00;65364.44;10384208;28;20045;-62
2022/10/11 04:50:44;;;;;;;1.20;1.10;;;;;;;-146.19;100.00;65364.44;10402333;28;20058;-61
2022/10/11 04:56:10;;;;;;;1.90;1.42;;;;;;;-146.19;100.00;65364.44;10397606;28;20057;-62
2022/10/11 05:01:29;;;;;;;1.20;1.10;;;;;;;-146.19;100.00;65364.44;10380039;28;20475;-62
2022/10/11 05:06:48;;;;;;;2.38;1.25;;;;;;;-146.19;100.00;65364.44;10401555;28;20486;-62
2022/10/11 05:12:08;;;;;;;3.05;1.27;;;;;;;-146.19;100.00;65364.44;10379131;28;20065;-61
2022/10/11 05:17:27;;;;;;;4.03;1.25;;;;;;;-146.19;100.00;65364.44;10390861;28;20060;-62
2022/10/11 05:22:47;;;;;;;3.03;1.30;;;;;;;-146.19;100.00;65364.44;10372131;28;20050;-61
2022/10/11 05:28:06;;;;;;;1.55;1.20;;;;;;;-146.19;100.00;65364.44;10390315;28;20096;-61
2022/10/11 05:33:26;;;;;;;1.45;1.20;;;;;;;-146.19;100.00;65364.44;10392421;28;20489;-61
2022/10/11 05:38:45;;;;;;;1.50;1.40;;;;;;;-146.19;100.00;65364.44;10383244;28;20046;-57
2022/10/11 05:44:07;;;;;;;1.50;1.20;;;;;;;-146.19;100.00;65364.44;10389603;28;20046;-60
2022/10/11 05:49:26;;;;;;;1.70;1.40;;;;;;;-146.19;100.00;65364.44;10400689;28;20037;-60
2022/10/11 05:54:47;;;;;;;2.25;1.45;;;;;;;-146.19;100.00;65364.44;10387653;28;20401;-59
2022/10/11 06:00:07;;;;;;;6.00;2.10;;;;;;;-146.19;100.00;65364.44;10369355;28;20410;-61
2022/10/11 06:05:33;;;;;;;5.05;2.03;;;;;;;-146.19;100.00;65364.44;10391322;28;20493;-60
2022/10/11 06:10:52;;;;;;;8.57;2.70;;;;;;;-146.19;100.00;65364.44;10386966;28;20038;-60
2022/10/11 06:16:12;;;;;;;7.00;2.65;;;;;;;-146.19;100.00;65364.44;10378356;28;20049;-60
2022/10/11 06:21:32;;;;;;;8.68;2.85;;;;;;;-146.19;100.00;65364.44;10395936;28;20555;-61
2022/10/11 06:26:52;;;;;;;7.85;3.00;;;;;;;-146.19;100.00;65364.44;10388187;28;20099;-61
2022/10/11 06:32:12;;;;;;;7.40;3.00;;;;;;;-146.19;100.00;65364.44;10388575;28;20046;-60
2022/10/11 06:37:31;;;;;;;10.07;3.15;;;;;;;-146.19;100.00;65364.44;10392222;28;20073;-60
2022/10/11 06:42:51;;;;;;;11.77;3.00;;;;;;;-146.19;100.00;65364.44;10387776;28;20052;-61
2022/10/11 06:48:10;;;;;;;7.20;2.70;;;;;;;-146.19;100.00;65364.44;10389241;28;20091;-61
2022/10/11 06:53:29;;;;;;;11.63;3.35;;;;;;;-146.19;100.00;65364.44;10387156;28;20042;-61
2022/10/11 06:58:50;;;;;;;8.63;3.20;;;;;;;-146.19;100.00;65364.44;10380347;28;20058;-61
2022/10/11 07:04:09;;;;;;;9.95;3.05;;;;;;;-146.19;100.00;65364.44;10394905;28;20049;-61
2022/10/11 07:09:29;;;;;;;8.35;3.03;;;;;;;-146.19;100.00;65364.44;10376715;28;20034;-61
2022/10/11 07:14:49;;;;;;;8.82;2.55;;;;;;;-146.19;100.00;65364.44;10361611;28;20042;-61
2022/10/11 07:20:09;;;;;;;8.07;3.17;;;;;;;-146.19;100.00;65364.44;10384027;28;20046;-60
2022/10/11 07:25:28;;;;;;;6.40;2.70;;;;;;;-146.19;100.00;65364.44;10379701;28;20042;-60
2022/10/11 07:30:48;;;;;;;6.82;3.05;;;;;;;-146.19;100.00;65364.44;10385928;28;20041;-60
2022/10/11 07:36:08;;;;;;;9.23;3.10;;;;;;;-146.19;100.00;65364.44;10393640;28;20375;-62
2022/10/11 07:41:28;;;;;;;5.72;2.70;;;;;;;-146.19;100.00;65364.44;10385209;28;20045;-56
2022/10/11 07:46:47;;;;;;;7.93;2.97;;;;;;;-146.19;100.00;65364.44;10385305;28;20037;-62
2022/10/11 07:52:07;;;;;;;7.10;3.20;;;;;;;-146.19;100.00;65364.44;10393252;28;20052;-61
2022/10/11 07:57:26;;;;;;;6.20;2.90;;;;;;;-146.19;100.00;65364.44;10383345;28;20062;-61
2022/10/11 08:02:46;;;;;;;8.27;3.13;;;;;;;-146.19;100.00;65364.44;10374928;28;20041;-60
2022/10/11 08:08:06;;;;;;;6.22;2.92;;;;;;;-146.19;100.00;65364.44;10389248;28;20052;-61
2022/10/11 08:13:25;;;;;;;7.38;3.03;;;;;;;-146.19;100.00;65364.44;10370257;28;20061;-61
2022/10/11 08:18:45;;;;;;;7.55;2.92;;;;;;;-146.19;100.00;65364.44;10387403;28;20057;-61
2022/10/11 08:24:05;;;;;;;7.78;2.97;;;;;;;-146.19;100.00;65364.44;10384993;28;20046;-61
2022/10/11 08:29:25;;;;;;;7.22;3.08;;;;;;;-146.19;100.00;65364.44;10384754;28;20212;-61
2022/10/11 08:34:44;;;;;;;8.15;3.75;;;;;;;-146.19;100.00;65364.44;10393888;28;20042;-60
2022/10/11 08:40:04;;;;;;;8.90;3.58;;;;;;;-146.19;100.00;65364.44;10392397;28;20046;-61
2022/10/11 08:45:44;;;;;;;5.53;3.10;;;;;;;-146.19;100.00;65364.44;10376117;28;20058;-61
2022/10/11 08:51:12;;;;;;;7.30;2.88;;;;;;;-146.19;100.00;65364.44;10383303;28;20057;-61
2022/10/11 08:56:35;;;;;;;6.07;2.60;;;;;;;-146.19;100.00;65364.44;10391572;28;20393;-61
2022/10/11 09:02:03;;;;;;;6.22;2.80;;;;;;;-146.19;100.00;65364.44;10363581;28;20073;-61
2022/10/11 09:07:32;;;;;;;4.63;2.50;;;;;;;-146.19;100.00;65364.44;10359329;28;20045;-60
2022/10/11 09:13:01;;;;;;;7.68;2.95;;;;;;;-146.19;100.00;65364.44;10391157;28;20038;-57
2022/10/11 09:18:51;;;;;;;4.63;2.75;;;;;;;-146.19;100.00;65364.44;10386041;28;20054;-61
2022/10/11 09:24:17;;;;;;;5.22;2.72;;;;;;;-146.19;100.00;65364.44;10389585;28;20096;-61
2022/10/11 09:30:13;;;;;;;5.10;2.60;;;;;;;-146.19;100.00;65364.44;10390241;28;20121;-59
2022/10/11 09:35:38;;;;;;;5.05;2.85;;;;;;;-146.19;100.00;65364.44;10286739;28;20054;-59
2022/10/11 09:40:58;;;;;;;5.53;2.65;;;;;;;-146.19;100.00;65364.44;10374918;28;20054;-61
2022/10/11 09:46:50;;;;;;;8.63;3.92;;;;;;;-146.19;100.00;65364.44;10397422;28;20080;-61
2022/10/11 09:52:21;;;;;;;5.85;3.03;;;;;;;-146.19;100.00;65364.44;10389011;28;20045;-61
2022/10/11 09:57:40;;;;;;;4.30;3.00;;;;;;;-146.19;100.00;65364.44;10387137;28;20050;-61
2022/10/11 10:03:02;;;;;;;5.30;2.80;;;;;;;-146.19;100.00;65364.44;10388090;28;20042;-62
2022/10/11 10:08:23;;;;;;;6.25;2.95;;;;;;;-146.19;100.00;65364.44;10389018;28;20409;-61
2022/10/11 10:13:51;;;;;;;5.35;2.80;;;;;;;-146.19;100.00;65364.44;10388534;28;20516;-61
2022/10/11 10:19:20;;;;;;;6.03;2.63;;;;;;;-146.19;100.00;65364.44;10377235;28;20046;-62
2022/10/11 10:24:40;;;;;;;4.28;2.53;;;;;;;-146.19;100.00;65364.44;10373787;28;20045;-61
2022/10/11 10:30:09;;;;;;;3.70;2.70;;;;;;;-146.19;100.00;65364.44;10387979;28;20481;-62
2022/10/11 10:35:35;;;;;;;3.47;2.25;;;;;;;-146.19;100.00;65364.44;10376788;28;20034;-60
2022/10/11 10:41:00;;;;;;;3.88;2.80;;;;;;;-146.19;100.00;65364.44;10373030;28;20409;-61
2022/10/11 10:46:41;;;;;;;3.60;2.33;;;;;;;-146.19;100.00;65364.44;10368273;28;20095;-61
2022/10/11 10:52:07;;;;;;;4.45;2.60;;;;;;;-146.19;100.00;65364.44;10387079;28;20096;-61
2022/10/11 10:57:39;;;;;;;3.80;2.33;;;;;;;-146.19;100.00;65364.44;10382278;28;20046;-61
2022/10/11 11:03:05;;;;;;;4.35;2.42;;;;;;;-146.19;100.00;65364.44;10388139;28;20512;-61
2022/10/11 11:08:36;;;;;;;3.90;2.60;;;;;;;-146.19;100.00;65364.44;10386419;28;20500;-60
2022/10/11 11:13:59;;;;;;;3.83;2.30;;;;;;;-146.19;100.00;65364.44;10386245;28;20080;-60
2022/10/11 11:20:03;;;;;;;4.15;2.50;;;;;;;-146.19;100.00;65364.44;10366302;28;20046;-61
2022/10/11 11:25:35;;;;;;;4.85;2.30;;;;;;;-146.19;100.00;65364.44;10363435;28;20497;-61
2022/10/11 11:31:33;;;;;;;4.55;2.40;;;;;;;-146.19;100.00;65364.44;10376524;28;20042;-60
2022/10/11 11:37:05;;;;;;;3.10;2.22;;;;;;;-146.19;100.00;65364.44;10345680;28;20140;-58
2022/10/11 11:42:27;;;;;;;5.10;2.50;;;;;;;-146.19;100.00;65364.44;10370865;28;20500;-61
2022/10/11 11:48:05;;;;;;;3.33;2.15;;;;;;;-146.19;100.00;65364.44;10371982;28;20049;-60
2022/10/11 11:53:46;;;;;;;2.90;2.10;;;;;;;-146.19;100.00;65364.44;10381306;28;20064;-61
2022/10/11 11:59:34;;;;;;;3.13;2.30;;;;;;;-146.19;100.00;65364.44;10377149;28;20061;-61
2022/10/11 12:04:54;;;;;;;2.67;2.00;;;;;;;-146.19;100.00;65364.44;10369671;28;20071;-62
2022/10/11 12:10:27;;;;;;;3.28;2.40;;;;;;;-146.19;100.00;65364.44;10389314;28;20088;-61
2022/10/11 12:15:56;;;;;;;3.05;1.92;;;;;;;-146.19;100.00;65364.44;10401498;28;20432;-59
2022/10/11 12:21:41;;;;;;;3.03;2.25;;;;;;;-146.19;100.00;65364.44;10377753;28;20397;-62
2022/10/11 12:27:39;;;;;;;3.25;2.03;;;;;;;-146.19;100.00;65364.44;10365115;28;20116;-61
2022/10/11 12:33:10;;;;;;;3.27;2.20;;;;;;;-146.19;100.00;65364.44;10405449;28;20042;-61
2022/10/11 12:38:39;;;;;;;2.90;2.08;;;;;;;-146.19;100.00;65364.44;10355143;28;20049;-61
2022/10/11 12:44:18;;;;;;;3.23;2.03;;;;;;;-146.19;100.00;65364.44;10377991;28;20052;-61
2022/10/11 12:49:41;;;;;;;4.00;2.00;;;;;;;-146.19;100.00;65364.44;10386626;28;20034;-60
2022/10/11 12:55:19;;;;;;;4.55;1.92;;;;;;;-146.19;100.00;65364.44;10391439;28;20379;-60
2022/10/11 13:00:38;;;;;;;4.95;1.73;;;;;;;-146.19;100.00;65364.44;10373705;28;20064;-59
2022/10/11 13:05:59;;;;;;;5.88;1.85;;;;;;;-146.19;100.00;65364.44;10391260;28;20037;-60
2022/10/11 13:11:21;;;;;;;6.13;2.13;;;;;;;-146.19;100.00;65364.44;10375593;28;20153;-60
2022/10/11 13:16:44;;;;;;;5.07;2.10;;;;;;;-146.19;100.00;65364.44;10376172;28;20054;-60
2022/10/11 13:22:15;;;;;;;3.05;2.10;;;;;;;-146.19;100.00;65364.44;10374909;28;20053;-60
2022/10/11 13:27:36;;;;;;;4.32;1.92;;;;;;;-146.19;100.00;65364.44;10387881;28;20046;-60
2022/10/11 13:32:56;;;;;;;4.57;2.10;;;;;;;-146.19;100.00;65364.44;10376534;28;20061;-60
2022/10/11 13:38:26;;;;;;;3.97;1.98;;;;;;;-146.19;100.00;65364.44;10375359;28;20049;-62
2022/10/11 13:43:46;;;;;;;2.85;1.67;;;;;;;-146.19;100.00;65364.44;10402485;28;20540;-61
2022/10/11 13:49:37;;;;;;;9.77;2.00;;;;;;;-146.19;100.00;65364.44;10377720;28;20460;-62
2022/10/11 13:55:12;;;;;;;2.95;2.00;;;;;;;-146.19;100.00;65364.44;10389204;28;20549;-61
2022/10/11 14:00:54;;;;;;;5.03;1.90;;;;;;;-146.19;100.00;65364.44;10355623;28;20640;-61
2022/10/11 14:06:14;;;;;;;2.47;1.65;;;;;;;-146.19;100.00;65364.44;10388573;28;20485;-54
2022/10/11 14:11:36;;;;;;;4.45;1.70;;;;;;;-146.19;100.00;65364.44;10388256;28;20094;-59
2022/10/11 14:16:57;;;;;;;3.80;1.90;;;;;;;-146.19;100.00;65364.44;10382682;28;20194;-58
2022/10/11 14:22:17;;;;;;;4.25;1.90;;;;;;;-146.19;100.00;65364.44;10388275;28;20045;-58
2022/10/11 14:27:37;;;;;;;3.10;1.95;;;;;;;-146.19;100.00;65364.44;10389254;28;20144;-61
2022/10/11 14:32:58;;;;;;;7.38;1.70;;;;;;;-146.19;100.00;65364.44;10386631;28;20886;-63
2022/10/11 14:38:20;;;;;;;3.30;1.92;;;;;;;-146.19;100.00;65364.44;10387063;28;20060;-61
2022/10/11 14:43:41;;;;;;;3.95;1.80;;;;;;;-146.19;100.00;65364.44;10387835;28;20490;-61
2022/10/11 14:49:00;;;;;;;6.72;1.90;;;;;;;-146.19;100.00;65364.44;10386766;28;20048;-60
2022/10/11 14:54:22;;;;;;;5.97;1.90;;;;;;;-146.19;100.00;65364.44;10379593;28;20037;-62
2022/10/11 14:59:42;;;;;;;4.18;1.83;;;;;;;-146.19;100.00;65364.44;10370818;28;20416;-62
2022/10/11 15:05:01;;;;;;;7.55;1.83;;;;;;;-146.19;100.00;65364.44;10386635;28;20489;-63
2022/10/11 15:10:26;;;;;;;4.50;1.85;;;;;;;-146.19;100.00;65364.44;10386352;28;20485;-61
2022/10/11 15:15:45;;;;;;;3.95;1.73;;;;;;;-146.19;100.00;65364.44;10398599;28;20045;-62
2022/10/11 15:21:05;;;;;;;3.63;2.15;;;;;;;-146.19;100.00;65364.44;10386156;28;20121;-62
2022/10/11 15:26:26;;;;;;;5.53;1.70;;;;;;;-146.19;100.00;65364.44;10385764;28;20073;-62
2022/10/11 15:31:48;;;;;;;5.80;1.70;;;;;;;-146.19;100.00;65364.44;10387414;28;20413;-62
2022/10/11 15:37:07;;;;;;;5.68;1.90;;;;;;;-146.19;100.00;65364.44;10385865;28;20048;-62
2022/10/11 15:42:27;;;;;;;2.45;1.58;;;;;;;-146.19;100.00;65364.44;10383596;28;20079;-62
2022/10/11 15:47:47;;;;;;;3.63;1.90;;;;;;;-146.19;100.00;65364.44;10365065;28;20057;-63
2022/10/11 15:53:09;;;;;;;4.22;1.80;;;;;;;-146.19;100.00;65364.44;10384586;28;20420;-63
2022/10/11 15:58:31;;;;;;;5.00;1.75;;;;;;;-146.19;100.00;65364.44;10377886;28;20417;-61
2022/10/11 16:03:50;;;;;;;7.57;1.92;;;;;;;-146.19;100.00;65364.44;10370759;28;20045;-61
2022/10/11 16:09:09;;;;;;;5.72;1.80;;;;;;;-146.19;100.00;65364.44;10371784;28;20057;-61
2022/10/11 16:14:29;;;;;;;6.50;1.88;;;;;;;-146.19;100.00;65364.44;10397474;28;20041;-60
2022/10/11 16:19:49;;;;;;;7.50;2.00;;;;;;;-146.19;100.00;65364.44;10384270;28;20042;-60
2022/10/11 16:25:08;;;;;;;4.43;1.60;;;;;;;-146.19;100.00;65364.44;10371623;28;20053;-61
2022/10/11 16:30:28;;;;;;;7.32;1.70;;;;;;;-146.19;100.00;65364.44;10386707;28;20060;-63
2022/10/11 16:35:47;;;;;;;3.30;1.48;;;;;;;-146.19;100.00;65364.44;10379149;28;20045;-63
2022/10/11 16:41:07;;;;;;;4.65;1.70;;;;;;;-146.19;100.00;65364.44;10384297;28;20057;-63
2022/10/11 16:46:27;;;;;;;3.80;1.73;;;;;;;-146.19;100.00;65364.44;10381860;28;20061;-63
2022/10/11 16:51:47;;;;;;;3.60;1.33;;;;;;;-146.19;100.00;65364.44;10384044;28;20038;-63
2022/10/11 16:57:07;;;;;;;3.40;1.70;;;;;;;-146.19;100.00;65364.44;10387332;28;20048;-63
2022/10/11 17:02:27;;;;;;;3.90;1.55;;;;;;;-146.19;100.00;65364.44;10378267;28;20054;-63
2022/10/11 17:07:47;;;;;;;4.28;1.50;;;;;;;-146.19;100.00;65364.44;10390925;28;20038;-63
2022/10/11 17:13:06;;;;;;;4.40;1.70;;;;;;;-146.19;100.00;65364.44;10388165;28;20390;-63
2022/10/11 17:18:25;;;;;;;4.13;1.67;;;;;;;-146.19;100.00;65364.44;10388390;28;20041;-63
2022/10/11 17:23:47;;;;;;;3.55;1.55;;;;;;;-146.19;100.00;65364.44;10390277;28;20486;-63
2022/10/11 17:29:06;;;;;;;3.15;1.67;;;;;;;-146.19;100.00;65364.44;10381942;28;20045;-64
2022/10/11 17:34:26;;;;;;;4.32;1.70;;;;;;;-146.19;100.00;65364.44;10376266;28;20037;-62
2022/10/11 17:39:45;;;;;;;4.88;3.15;;;;;;;-146.19;100.00;65364.44;10389249;28;20116;-63
2022/10/11 17:45:05;;;;;;;3.00;2.08;;;;;;;-146.19;100.00;65364.44;10373360;28;20054;-62
2022/10/11 17:50:25;;;;;;;3.80;1.90;;;;;;;-146.19;100.00;65364.44;10382828;28;20042;-61
2022/10/11 17:55:45;;;;;;;4.18;2.00;;;;;;;-146.19;100.00;65364.44;10396806;28;20057;-61
2022/10/11 18:01:09;;;;;;;8.98;1.90;;;;;;;-146.19;100.00;65364.44;10378424;28;20468;-61
2022/10/11 18:06:31;;;;;;;4.30;1.70;;;;;;;-146.19;100.00;65364.44;10388432;28;20445;-60
2022/10/11 18:11:51;;;;;;;18.65;2.38;;;;;;;-146.19;100.00;65364.44;10401236;28;20045;-59
2022/10/11 18:17:10;;;;;;;2.75;2.08;;;;;;;-146.19;100.00;65364.44;10373872;28;20057;-62
2022/10/11 18:22:30;;;;;;;6.00;2.20;;;;;;;-146.19;100.00;65364.44;10374958;28;20054;-59
2022/10/11 18:27:50;;;;;;;5.22;2.10;;;;;;;-146.19;100.00;65364.44;10387584;28;20067;-61
2022/10/11 18:33:14;;;;;;;6.38;2.28;;;;;;;-146.19;100.00;65364.44;10387896;28;20030;-61
2022/10/11 18:38:36;;;;;;;5.63;2.70;;;;;;;-146.19;100.00;65364.44;10387790;28;20116;-62
2022/10/11 18:43:58;;;;;;;3.92;2.50;;;;;;;-146.19;100.00;65364.44;10398430;28;20125;-59
2022/10/11 18:49:18;;;;;;;7.40;2.22;;;;;;;-146.19;100.00;65364.44;10382461;28;20038;-58
2022/10/11 18:54:39;;;;;;;6.28;2.58;;;;;;;-146.19;100.00;65364.44;10386156;28;20481;-61
2022/10/11 18:59:58;;;;;;;5.15;2.10;;;;;;;-146.19;100.00;65364.44;10385623;28;20057;-61
2022/10/11 19:05:18;;;;;;;5.97;2.60;;;;;;;-146.19;100.00;65364.44;10387086;28;20049;-58
2022/10/11 19:10:37;;;;;;;8.07;2.58;;;;;;;-146.19;100.00;65364.44;10391953;28;20499;-60
2022/10/11 19:16:15;;;;;;;8.07;2.50;;;;;;;-146.19;100.00;65364.44;10386972;28;20490;-59
2022/10/11 19:21:34;;;;;;;5.68;2.22;;;;;;;-146.19;100.00;65364.44;10380095;28;20108;-62
2022/10/11 19:26:54;;;;;;;5.50;2.92;;;;;;;-146.19;100.00;65364.44;10373827;28;20045;-62
2022/10/11 19:32:16;;;;;;;3.22;2.20;;;;;;;-146.19;100.00;65364.44;10372781;28;20054;-59
2022/10/11 19:37:36;;;;;;;5.10;2.63;;;;;;;-146.19;100.00;65364.44;10385458;28;20513;-62
2022/10/11 19:42:55;;;;;;;3.53;2.25;;;;;;;-146.19;100.00;65364.44;10387602;28;20042;-61
2022/10/11 19:48:14;;;;;;;7.05;2.60;;;;;;;-146.19;100.00;65364.44;10382329;28;20046;-54
2022/10/11 19:53:34;;;;;;;4.65;2.35;;;;;;;-146.19;100.00;65364.44;10385175;28;20053;-62
2022/10/11 19:58:54;;;;;;;4.40;2.38;;;;;;;-146.19;100.00;65364.44;10386457;28;20053;-62
2022/10/11 20:04:14;;;;;;;3.40;2.47;;;;;;;-146.19;100.00;65364.44;10384863;28;20046;-60
2022/10/11 20:09:33;;;;;;;3.55;2.38;;;;;;;-146.19;100.00;65364.44;10382073;28;20041;-62
2022/10/11 20:14:52;;;;;;;5.20;2.30;;;;;;;-146.19;100.00;65364.44;10384914;28;20155;-63
2022/10/11 20:20:14;;;;;;;3.58;2.50;;;;;;;-146.19;100.00;65364.44;10380224;28;20041;-61
2022/10/11 20:25:34;;;;;;;4.20;2.38;;;;;;;-146.19;100.00;65364.44;10367352;28;20464;-63
2022/10/11 20:30:54;;;;;;;6.45;2.65;;;;;;;-146.19;100.00;65364.44;10386795;28;20045;-63
2022/10/11 20:36:16;;;;;;;6.35;2.88;;;;;;;-146.19;100.00;65364.44;10392746;28;20042;-56
2022/10/11 20:41:38;;;;;;;5.97;2.70;;;;;;;-146.19;100.00;65364.44;10397042;28;20046;-63
2022/10/11 20:46:57;;;;;;;9.32;3.28;;;;;;;-146.19;100.00;65364.44;10387388;28;20037;-62
2022/10/11 20:52:17;;;;;;;6.88;2.97;;;;;;;-146.19;100.00;65364.44;10392183;28;20092;-63
2022/10/11 20:57:37;;;;;;;9.75;3.97;;;;;;;-146.19;100.00;65364.44;10392938;28;20050;-63
2022/10/11 21:02:57;;;;;;;8.70;3.47;;;;;;;-146.19;100.00;65364.44;10391470;28;20045;-62
2022/10/11 21:08:16;;;;;;;9.80;3.58;;;;;;;-146.19;100.00;65364.44;10386866;28;20456;-63
2022/10/11 21:13:36;;;;;;;8.65;3.72;;;;;;;-146.19;100.00;65364.44;10393207;28;20548;-62
2022/10/11 21:18:57;;;;;;;10.32;4.03;;;;;;;-146.19;100.00;65364.44;10379801;28;20042;-62
2022/10/11 21:24:16;;;;;;;10.35;3.65;;;;;;;-146.19;100.00;65364.44;10392989;28;20096;-62
2022/10/11 21:29:35;;;;;;;8.95;3.67;;;;;;;-146.19;100.00;65364.44;10359296;28;20050;-62
2022/10/11 21:34:54;;;;;;;7.05;3.33;;;;;;;-146.19;100.00;65364.44;10390149;28;20042;-63
2022/10/11 21:40:13;;;;;;;7.50;3.47;;;;;;;-146.19;100.00;65364.44;10394246;28;20060;-61
2022/10/11 21:45:37;;;;;;;9.05;3.67;;;;;;;-146.19;100.00;65364.44;10378879;28;20038;-61
2022/10/11 21:50:56;;;;;;;7.43;2.97;;;;;;;-146.19;100.00;65364.44;10389413;28;20056;-62
2022/10/11 21:56:15;;;;;;;8.02;3.50;;;;;;;-146.19;100.00;65364.44;10386447;28;20042;-62
2022/10/11 22:01:38;;;;;;;8.48;3.58;;;;;;;-146.19;100.00;65364.44;10376991;28;20049;-62
2022/10/11 22:06:57;;;;;;;6.47;3.38;;;;;;;-146.19;100.00;65364.44;10394327;28;20044;-62
2022/10/11 22:12:17;;;;;;;7.50;3.40;;;;;;;-146.19;100.00;65364.44;10363008;28;20057;-62
2022/10/11 22:17:36;;;;;;;6.25;3.38;;;;;;;-146.19;100.00;65364.44;10375446;28;20053;-62
2022/10/11 22:22:55;;;;;;;6.10;3.15;;;;;;;-146.19;100.00;65364.44;10401109;28;20444;-62
2022/10/11 22:28:14;;;;;;;8.18;3.35;;;;;;;-146.19;100.00;65364.44;10380448;28;20040;-62
2022/10/11 22:33:33;;;;;;;6.93;3.35;;;;;;;-146.19;100.00;65364.44;10388063;28;20548;-63
2022/10/11 22:38:53;;;;;;;7.43;3.10;;;;;;;-146.19;100.00;65364.44;10390311;28;20060;-62
2022/10/11 22:44:13;;;;;;;4.88;3.03;;;;;;;-146.19;100.00;65364.44;10387779;28;20100;-62
2022/10/11 22:49:32;;;;;;;7.43;3.00;;;;;;;-146.19;100.00;65364.44;10369989;28;20050;-62
2022/10/11 22:54:51;;;;;;;6.75;3.28;;;;;;;-146.19;100.00;65364.44;10393723;28;20069;-61
2022/10/11 23:00:12;;;;;;;4.97;3.10;;;;;;;-146.19;100.00;65364.44;10373162;28;20136;-62
2022/10/11 23:05:33;;;;;;;6.38;2.72;;;;;;;-146.19;100.00;65364.44;10386944;28;20053;-62
2022/10/11 23:10:53;;;;;;;4.22;2.70;;;;;;;-146.19;100.00;65364.44;10386304;28;20108;-63
2022/10/11 23:16:12;;;;;;;4.55;2.88;;;;;;;-146.19;100.00;65364.44;10386600;28;20042;-63
2022/10/11 23:21:31;;;;;;;5.22;2.60;;;;;;;-146.19;100.00;65364.44;10380749;28;20041;-62
2022/10/11 23:26:51;;;;;;;5.00;2.50;;;;;;;-146.19;100.00;65364.44;10380705;28;20046;-62
2022/10/11 23:32:10;;;;;;;4.75;3.10;;;;;;;-146.19;100.00;65364.44;10385940;28;20045;-62
2022/10/11 23:37:30;;;;;;;4.30;2.60;;;;;;;-146.19;100.00;65364.44;10388098;28;20049;-62
2022/10/11 23:42:50;;;;;;;5.10;2.13;;;;;;;-146.19;100.00;65364.44;10385809;28;20042;-61
2022/10/11 23:48:10;;;;;;;5.25;2.75;;;;;;;-146.19;100.00;65364.44;10378023;28;20042;-62
2022/10/11 23:53:29;;;;;;;4.47;2.40;;;;;;;-146.19;100.00;65364.44;10393334;28;20401;-62
2022/10/11 23:58:48;;;;;;;5.00;2.50;;;;;;;-146.19;100.00;65364.44;10372181;28;20176;-63
